Time;durP1;ratioP1;P1;durP2;ratioP2;P2;SDS_P1;SDS_P2;PMS_P1;PMS_P2;Temp;Humidity;BMP_temperature;BMP_pressure;BME280_temperature;BME280_humidity;BME280_pressure;Samples;Min_cycle;Max_cycle;Signal;HPM_P1;HPM_P2
2022/03/08 00:00:54;;;;;;;1.60;1.50;;;2.60;81.20;;;;;;5081281;28;20460;-75
2022/03/08 00:03:20;;;;;;;1.60;1.50;;;2.60;81.20;;;;;;5084520;28;20520;-75
2022/03/08 00:05:47;;;;;;;1.60;1.50;;;2.60;81.20;;;;;;5082999;28;20844;-75
2022/03/08 00:08:14;;;;;;;1.57;1.40;;;2.60;81.20;;;;;;5086832;28;20490;-75
2022/03/08 00:10:42;;;;;;;1.60;1.50;;;2.50;80.90;;;;;;5085160;28;20460;-75
2022/03/08 00:13:09;;;;;;;1.60;1.50;;;2.60;81.10;;;;;;5086987;28;20491;-75
2022/03/08 00:15:36;;;;;;;1.60;1.50;;;2.50;81.10;;;;;;5087799;28;20468;-75
2022/03/08 00:18:03;;;;;;;1.50;1.40;;;2.50;81.40;;;;;;5086413;28;20852;-75
2022/03/08 00:20:31;;;;;;;1.50;1.40;;;2.50;81.60;;;;;;5084976;28;20457;-75
2022/03/08 00:22:59;;;;;;;1.57;1.40;;;2.50;81.60;;;;;;5087755;28;20558;-75
2022/03/08 00:25:26;;;;;;;1.63;1.53;;;2.50;81.60;;;;;;5085407;28;20484;-75
2022/03/08 00:27:54;;;;;;;1.60;1.50;;;2.50;81.60;;;;;;5081340;28;20460;-75
2022/03/08 00:30:23;;;;;;;1.70;1.60;;;2.50;81.60;;;;;;5082318;28;20933;-76
2022/03/08 00:32:51;;;;;;;1.57;1.40;;;2.50;81.70;;;;;;5087001;28;20477;-75
2022/03/08 00:35:18;;;;;;;1.70;1.60;;;2.50;81.90;;;;;;5077335;28;20468;-75
2022/03/08 00:37:47;;;;;;;1.60;1.50;;;2.40;82.00;;;;;;5083190;28;20844;-75
2022/03/08 00:40:15;;;;;;;1.70;1.60;;;2.40;81.90;;;;;;5086740;28;20453;-75
2022/03/08 00:42:42;;;;;;;1.70;1.60;;;2.40;82.20;;;;;;5080458;28;20480;-75
2022/03/08 00:45:11;;;;;;;1.60;1.50;;;2.40;82.10;;;;;;5087247;28;20453;-75
2022/03/08 00:47:39;;;;;;;1.60;1.50;;;2.40;82.40;;;;;;5087336;28;20456;-75
2022/03/08 00:50:09;;;;;;;1.57;1.47;;;2.30;82.60;;;;;;5083360;28;20520;-75
2022/03/08 00:52:35;;;;;;;1.60;1.50;;;2.30;82.50;;;;;;5086406;28;20457;-75
2022/03/08 00:55:04;;;;;;;1.67;1.57;;;2.30;82.80;;;;;;5087642;28;20468;-75
2022/03/08 00:57:30;;;;;;;1.70;1.60;;;2.30;83.00;;;;;;5083056;28;20831;-75
2022/03/08 00:59:57;;;;;;;1.67;1.57;;;2.30;83.10;;;;;;5080853;28;20472;-75
2022/03/08 01:02:25;;;;;;;1.60;1.50;;;2.30;83.00;;;;;;5083607;28;20456;-75
2022/03/08 01:04:52;;;;;;;1.57;1.40;;;2.30;83.00;;;;;;5076185;28;20465;-75
2022/03/08 01:07:19;;;;;;;1.60;1.50;;;2.20;83.00;;;;;;5086897;28;20457;-75
2022/03/08 01:09:46;;;;;;;1.60;1.47;;;2.20;82.90;;;;;;5080974;28;20486;-75
2022/03/08 01:12:12;;;;;;;1.60;1.50;;;2.20;83.10;;;;;;5086518;28;20828;-75
2022/03/08 01:14:39;;;;;;;1.60;1.50;;;2.20;82.90;;;;;;5087499;28;20495;-74
2022/03/08 01:17:06;;;;;;;1.60;1.50;;;2.20;83.00;;;;;;5086528;28;20475;-75
2022/03/08 01:19:34;;;;;;;1.60;1.50;;;2.20;83.00;;;;;;5086196;28;20464;-75
2022/03/08 01:22:01;;;;;;;1.60;1.50;;;2.20;82.90;;;;;;5083441;28;20460;-75
2022/03/08 01:24:30;;;;;;;1.60;1.50;;;2.20;82.90;;;;;;5091593;28;20480;-75
2022/03/08 01:26:56;;;;;;;1.50;1.40;;;2.20;82.80;;;;;;5090249;28;20468;-75
2022/03/08 01:29:24;;;;;;;1.60;1.50;;;2.20;82.90;;;;;;5088140;28;20492;-75
2022/03/08 01:31:50;;;;;;;1.60;1.47;;;2.20;82.70;;;;;;5090185;28;20840;-75
2022/03/08 01:34:17;;;;;;;1.60;1.50;;;2.20;82.90;;;;;;5087847;28;20483;-75
2022/03/08 01:36:45;;;;;;;1.73;1.63;;;2.20;82.90;;;;;;5080060;28;20457;-75
2022/03/08 01:39:12;;;;;;;1.70;1.60;;;2.20;83.10;;;;;;5090880;28;20908;-75
2022/03/08 01:41:39;;;;;;;1.60;1.50;;;2.20;83.20;;;;;;5066287;28;20860;-75
2022/03/08 01:44:08;;;;;;;1.60;1.50;;;2.20;83.00;;;;;;5080751;28;20487;-75
2022/03/08 01:46:36;;;;;;;1.80;1.70;;;2.20;83.00;;;;;;5084570;28;20734;-75
2022/03/08 01:49:03;;;;;;;1.60;1.50;;;2.20;83.20;;;;;;5090598;28;20516;-75
2022/03/08 01:51:30;;;;;;;1.70;1.60;;;2.20;83.10;;;;;;5088528;28;20968;-75
2022/03/08 01:53:58;;;;;;;1.60;1.50;;;2.20;83.30;;;;;;5083860;28;20472;-75
2022/03/08 01:56:26;;;;;;;1.70;1.60;;;2.20;83.10;;;;;;5082372;28;20844;-75
2022/03/08 01:58:52;;;;;;;1.70;1.60;;;2.20;83.20;;;;;;5087244;28;20449;-75
2022/03/08 02:01:19;;;;;;;1.60;1.50;;;2.20;83.10;;;;;;5084729;28;20463;-75
2022/03/08 02:03:46;;;;;;;1.60;1.50;;;2.20;83.10;;;;;;5085663;28;20873;-75
2022/03/08 02:06:13;;;;;;;1.60;1.50;;;2.20;83.00;;;;;;5078896;28;20539;-75
2022/03/08 02:08:40;;;;;;;1.57;1.40;;;2.20;82.90;;;;;;5089771;28;20467;-75
2022/03/08 02:11:08;;;;;;;1.60;1.50;;;2.20;82.70;;;;;;5080469;28;20920;-75
2022/03/08 02:13:35;;;;;;;1.60;1.50;;;2.20;83.00;;;;;;5090023;28;20480;-75
2022/03/08 02:16:01;;;;;;;1.60;1.50;;;2.20;83.00;;;;;;5088960;28;20460;-75
2022/03/08 02:18:28;;;;;;;1.57;1.40;;;2.20;82.80;;;;;;5089888;28;20463;-75
2022/03/08 02:20:55;;;;;;;1.60;1.50;;;2.20;82.70;;;;;;5072445;28;20491;-75
2022/03/08 02:23:23;;;;;;;1.60;1.50;;;2.20;82.90;;;;;;5086631;28;20502;-75
2022/03/08 02:25:50;;;;;;;1.60;1.50;;;2.30;82.70;;;;;;5084388;28;20471;-75
2022/03/08 02:28:17;;;;;;;1.60;1.50;;;2.30;82.80;;;;;;5078969;28;20460;-75
2022/03/08 02:30:43;;;;;;;1.60;1.50;;;2.30;82.80;;;;;;5082054;28;21020;-75
2022/03/08 02:33:10;;;;;;;1.60;1.50;;;2.30;82.90;;;;;;5082553;28;20856;-75
2022/03/08 02:35:37;;;;;;;1.70;1.60;;;2.30;83.20;;;;;;5075218;28;20472;-75
2022/03/08 02:38:06;;;;;;;1.80;1.70;;;2.40;83.20;;;;;;5078774;28;20456;-75
2022/03/08 02:40:37;;;;;;;1.67;1.57;;;2.40;82.90;;;;;;5083793;28;20462;-75
2022/03/08 02:43:05;;;;;;;1.60;1.50;;;2.40;82.80;;;;;;5083475;28;20491;-75
2022/03/08 02:45:32;;;;;;;1.60;1.50;;;2.40;82.90;;;;;;5083282;28;20464;-75
2022/03/08 02:47:59;;;;;;;1.60;1.50;;;2.50;82.80;;;;;;5082395;28;20460;-75
2022/03/08 02:50:26;;;;;;;1.63;1.53;;;2.50;82.90;;;;;;5080736;28;20476;-75
2022/03/08 02:52:54;;;;;;;1.70;1.60;;;2.40;82.80;;;;;;5076951;28;20493;-75
2022/03/08 02:55:22;;;;;;;1.63;1.53;;;2.40;82.80;;;;;;5089206;28;20468;-75
2022/03/08 02:57:52;;;;;;;1.50;1.40;;;2.40;83.00;;;;;;5081568;28;20975;-75
2022/03/08 03:00:20;;;;;;;1.70;1.60;;;2.40;83.10;;;;;;5084069;28;20960;-75
2022/03/08 03:02:48;;;;;;;1.50;1.40;;;2.40;83.10;;;;;;5081165;28;20491;-75
2022/03/08 03:05:15;;;;;;;1.50;1.40;;;2.40;83.20;;;;;;5077152;28;20463;-75
2022/03/08 03:07:42;;;;;;;2.33;2.13;;;2.40;83.10;;;;;;5080475;28;20457;-75
2022/03/08 03:10:10;;;;;;;1.50;1.40;;;2.40;83.30;;;;;;5085372;28;20488;-75
2022/03/08 03:12:37;;;;;;;1.60;1.50;;;2.40;83.20;;;;;;5087315;28;20473;-75
2022/03/08 03:15:08;;;;;;;1.60;1.50;;;2.30;83.20;;;;;;5083396;28;20989;-75
2022/03/08 03:17:36;;;;;;;1.60;1.47;;;2.30;83.30;;;;;;5087833;28;20479;-75
2022/03/08 03:20:04;;;;;;;1.60;1.50;;;2.30;83.30;;;;;;5086548;28;20457;-75
2022/03/08 03:22:31;;;;;;;1.60;1.50;;;2.30;83.40;;;;;;5086039;28;20461;-75
2022/03/08 03:24:57;;;;;;;1.57;1.40;;;2.30;83.30;;;;;;5083758;28;20906;-75
2022/03/08 03:27:24;;;;;;;1.60;1.50;;;2.30;83.50;;;;;;5087628;28;20460;-75
2022/03/08 03:29:51;;;;;;;1.50;1.40;;;2.30;83.60;;;;;;5085319;28;20493;-75
2022/03/08 03:32:19;;;;;;;1.60;1.50;;;2.20;83.70;;;;;;5086703;28;20465;-75
2022/03/08 03:34:46;;;;;;;1.60;1.50;;;2.20;84.00;;;;;;5078531;28;20477;-75
2022/03/08 03:37:13;;;;;;;1.60;1.50;;;2.20;84.10;;;;;;5082297;28;20968;-75
2022/03/08 03:39:40;;;;;;;1.60;1.50;;;2.20;84.30;;;;;;5086388;28;20550;-76
2022/03/08 03:42:07;;;;;;;1.60;1.50;;;2.20;84.10;;;;;;5086604;28;20460;-75
2022/03/08 03:44:34;;;;;;;1.77;1.67;;;2.20;84.20;;;;;;5087701;28;20477;-75
2022/03/08 03:47:01;;;;;;;1.70;1.60;;;2.10;84.40;;;;;;5087073;28;20828;-75
2022/03/08 03:49:29;;;;;;;1.60;1.43;;;2.10;84.40;;;;;;5080686;28;20476;-75
2022/03/08 03:51:56;;;;;;;1.70;1.60;;;2.10;84.20;;;;;;5085917;28;20810;-75
2022/03/08 03:54:23;;;;;;;1.60;1.40;;;2.10;84.30;;;;;;5086166;28;20487;-75
2022/03/08 03:56:50;;;;;;;1.57;1.40;;;2.10;84.20;;;;;;5087198;28;20461;-75
2022/03/08 03:59:17;;;;;;;1.93;1.83;;;2.10;84.00;;;;;;5086436;28;20517;-75
2022/03/08 04:01:44;;;;;;;4.90;4.03;;;2.10;83.60;;;;;;5085177;28;20460;-75
2022/03/08 04:04:11;;;;;;;10.93;7.57;;;2.10;83.90;;;;;;5113706;23;20495;-74
2022/03/08 04:06:39;;;;;;;1.70;1.60;;;2.10;83.70;;;;;;5022469;28;20460;-73
2022/03/08 04:09:07;;;;;;;1.60;1.50;;;2.00;83.70;;;;;;5027075;28;20549;-73
2022/03/08 04:11:33;;;;;;;1.67;1.57;;;2.00;83.90;;;;;;5023031;28;20459;-73
2022/03/08 04:14:00;;;;;;;2.63;2.43;;;2.00;83.70;;;;;;5026267;28;20486;-74
2022/03/08 04:16:27;;;;;;;1.50;1.40;;;2.00;84.00;;;;;;5031874;28;20470;-74
2022/03/08 04:18:54;;;;;;;1.60;1.50;;;2.00;83.90;;;;;;5029785;28;20458;-72
2022/03/08 04:21:21;;;;;;;1.73;1.63;;;2.00;84.20;;;;;;5030133;28;20463;-71
2022/03/08 04:23:49;;;;;;;1.70;1.60;;;2.00;84.10;;;;;;5027858;28;21027;-72
2022/03/08 04:26:16;;;;;;;1.77;1.67;;;2.00;84.20;;;;;;5031036;28;20974;-72
2022/03/08 04:28:43;;;;;;;1.60;1.50;;;2.00;84.10;;;;;;5027707;28;20974;-74
2022/03/08 04:31:09;;;;;;;1.70;1.60;;;2.00;84.10;;;;;;5024467;28;20493;-72
2022/03/08 04:33:36;;;;;;;1.63;1.53;;;2.00;84.20;;;;;;5026161;28;20483;-73
2022/03/08 04:36:04;;;;;;;1.60;1.50;;;1.90;84.30;;;;;;5025695;28;20468;-74
2022/03/08 04:38:30;;;;;;;1.60;1.47;;;1.90;84.30;;;;;;5026276;28;20848;-74
2022/03/08 04:41:01;;;;;;;1.60;1.50;;;1.90;84.30;;;;;;5026432;28;20470;-73
2022/03/08 04:43:28;;;;;;;1.53;1.40;;;1.90;84.70;;;;;;5028126;28;20471;-73
2022/03/08 04:45:55;;;;;;;1.70;1.60;;;1.90;84.70;;;;;;5029427;28;20488;-74
2022/03/08 04:48:22;;;;;;;1.67;1.57;;;1.90;84.90;;;;;;5028626;28;20482;-73
2022/03/08 04:50:49;;;;;;;1.73;1.63;;;1.90;84.60;;;;;;5025159;28;20491;-74
2022/03/08 04:53:16;;;;;;;1.60;1.50;;;1.90;84.80;;;;;;5025724;28;20463;-74
2022/03/08 04:55:42;;;;;;;1.60;1.50;;;1.90;84.70;;;;;;5028448;28;20467;-72
2022/03/08 04:58:10;;;;;;;1.60;1.50;;;1.90;84.60;;;;;;5029409;28;20574;-72
2022/03/08 05:00:37;;;;;;;1.70;1.60;;;1.90;84.70;;;;;;5028213;28;20463;-75
2022/03/08 05:03:04;;;;;;;2.37;2.17;;;1.90;84.60;;;;;;5029938;28;20475;-74
2022/03/08 05:05:33;;;;;;;2.10;1.97;;;1.90;84.60;;;;;;5030321;28;20505;-75
2022/03/08 05:08:00;;;;;;;1.67;1.57;;;1.90;84.60;;;;;;5030456;28;20467;-74
2022/03/08 05:10:27;;;;;;;1.70;1.60;;;1.90;84.60;;;;;;5027395;28;20645;-73
2022/03/08 05:12:55;;;;;;;1.60;1.50;;;1.90;84.60;;;;;;5030805;28;20470;-74
2022/03/08 05:15:23;;;;;;;1.60;1.50;;;1.90;85.00;;;;;;5029875;28;20514;-74
2022/03/08 05:17:50;;;;;;;1.60;1.47;;;1.90;85.10;;;;;;5029804;28;20459;-74
2022/03/08 05:20:16;;;;;;;1.57;1.40;;;1.80;85.20;;;;;;5029301;28;20467;-75
2022/03/08 05:22:43;;;;;;;1.70;1.60;;;1.80;85.60;;;;;;5036237;28;20463;-74
2022/03/08 05:25:11;;;;;;;1.60;1.50;;;1.80;85.70;;;;;;5034473;28;20485;-74
2022/03/08 05:27:38;;;;;;;1.57;1.47;;;1.80;85.70;;;;;;5030034;28;20471;-74
2022/03/08 05:30:06;;;;;;;1.60;1.50;;;1.80;85.60;;;;;;5030430;28;20481;-74
2022/03/08 05:32:34;;;;;;;1.70;1.60;;;1.80;85.50;;;;;;5033843;28;20975;-72
2022/03/08 05:35:01;;;;;;;1.73;1.63;;;1.70;85.30;;;;;;5030659;28;20864;-73
2022/03/08 05:37:28;;;;;;;1.60;1.50;;;1.70;85.60;;;;;;5031747;28;20470;-73
2022/03/08 05:39:55;;;;;;;1.60;1.50;;;1.70;85.60;;;;;;5028587;28;20459;-73
2022/03/08 05:42:21;;;;;;;1.70;1.60;;;1.70;85.60;;;;;;5029681;28;20463;-75
2022/03/08 05:44:48;;;;;;;1.60;1.50;;;1.60;85.80;;;;;;5031306;28;20479;-74
2022/03/08 05:47:15;;;;;;;1.60;1.50;;;1.60;85.70;;;;;;5029442;28;20992;-74
2022/03/08 05:49:43;;;;;;;1.80;1.70;;;1.60;85.90;;;;;;5021299;28;20470;-74
2022/03/08 05:52:10;;;;;;;1.67;1.57;;;1.60;85.70;;;;;;5036216;28;20490;-75
2022/03/08 05:54:37;;;;;;;1.70;1.60;;;1.60;85.90;;;;;;5023155;28;20860;-74
2022/03/08 05:57:04;;;;;;;1.60;1.50;;;1.50;86.20;;;;;;5031257;28;20466;-74
2022/03/08 05:59:31;;;;;;;5.83;5.53;;;1.50;86.20;;;;;;5028210;28;20460;-74
2022/03/08 06:01:57;;;;;;;1.70;1.60;;;1.50;86.10;;;;;;5030711;28;20459;-74
2022/03/08 06:04:25;;;;;;;1.60;1.50;;;1.50;86.20;;;;;;5028274;28;20519;-74
2022/03/08 06:06:54;;;;;;;1.60;1.50;;;1.50;86.00;;;;;;5030688;28;20459;-74
2022/03/08 06:09:21;;;;;;;1.70;1.60;;;1.60;85.90;;;;;;5027268;28;20870;-74
2022/03/08 06:11:47;;;;;;;1.70;1.60;;;1.50;86.00;;;;;;5033923;28;20494;-74
2022/03/08 06:14:14;;;;;;;1.60;1.50;;;1.60;85.70;;;;;;5028654;28;20483;-74
2022/03/08 06:16:41;;;;;;;1.60;1.50;;;1.60;85.70;;;;;;5030095;28;20971;-75
2022/03/08 06:19:08;;;;;;;1.60;1.50;;;1.60;85.80;;;;;;5028804;28;20467;-74
2022/03/08 06:21:35;;;;;;;1.60;1.50;;;1.60;85.70;;;;;;5011189;28;20480;-74
2022/03/08 06:24:03;;;;;;;1.60;1.50;;;1.60;85.60;;;;;;5017182;28;20479;-72
2022/03/08 06:26:31;;;;;;;1.67;1.57;;;1.60;85.70;;;;;;5028629;28;20558;-75
2022/03/08 06:28:58;;;;;;;1.60;1.50;;;1.70;85.30;;;;;;5025746;28;20463;-75
2022/03/08 06:31:25;;;;;;;1.60;1.50;;;1.70;85.00;;;;;;5025365;28;20991;-74
2022/03/08 06:33:52;;;;;;;1.60;1.50;;;1.70;84.70;;;;;;5027944;28;20483;-76
2022/03/08 06:36:18;;;;;;;1.57;1.40;;;1.80;84.60;;;;;;5033880;28;20470;-74
2022/03/08 06:38:45;;;;;;;1.60;1.50;;;1.80;84.30;;;;;;5021145;28;20839;-73
2022/03/08 06:41:13;;;;;;;1.60;1.50;;;1.90;84.10;;;;;;5022516;28;20471;-76
2022/03/08 06:43:40;;;;;;;1.60;1.50;;;2.00;83.70;;;;;;5024317;28;20483;-73
2022/03/08 06:46:08;;;;;;;15.10;14.03;;;2.10;83.50;;;;;;5024254;28;20589;-72
2022/03/08 06:48:35;;;;;;;1.73;1.63;;;2.20;83.10;;;;;;5020047;28;20494;-71
2022/03/08 06:51:04;;;;;;;1.63;1.53;;;2.30;82.80;;;;;;5021312;28;20506;-73
2022/03/08 06:53:33;;;;;;;3.80;3.60;;;2.40;82.30;;;;;;5021765;28;20463;-72
2022/03/08 06:56:01;;;;;;;1.60;1.50;;;2.50;82.30;;;;;;5028917;28;20528;-71
2022/03/08 06:58:31;;;;;;;1.60;1.50;;;2.60;81.60;;;;;;5008634;28;20539;-72
2022/03/08 07:00:58;;;;;;;1.50;1.40;;;2.70;81.20;;;;;;5025339;28;20470;-71
2022/03/08 07:03:33;;;;;;;1.60;1.50;;;2.80;81.00;;;;;;5024403;28;20569;-72
2022/03/08 07:06:00;;;;;;;3.37;3.17;;;3.00;80.90;;;;;;5023353;28;20461;-74
2022/03/08 07:08:27;;;;;;;1.67;1.57;;;3.10;80.50;;;;;;5024824;28;21220;-73
2022/03/08 07:10:54;;;;;;;1.57;1.40;;;3.20;80.10;;;;;;5022145;28;20483;-73
2022/03/08 07:13:22;;;;;;;1.60;1.40;;;3.30;79.80;;;;;;5023901;28;20474;-70
2022/03/08 07:15:50;;;;;;;1.60;1.40;;;3.40;79.50;;;;;;5023285;28;20538;-72
2022/03/08 07:18:17;;;;;;;1.60;1.40;;;3.50;79.40;;;;;;5025944;28;20463;-71
2022/03/08 07:20:43;;;;;;;1.83;1.73;;;3.60;79.20;;;;;;5020934;28;20454;-71
2022/03/08 07:23:10;;;;;;;1.60;1.50;;;3.70;78.90;;;;;;5024312;28;20459;-73
2022/03/08 07:25:37;;;;;;;1.53;1.40;;;3.80;78.90;;;;;;5025186;28;20848;-72
2022/03/08 07:28:04;;;;;;;1.57;1.43;;;3.90;78.40;;;;;;5024881;28;20467;-72
2022/03/08 07:30:32;;;;;;;5.20;4.90;;;4.00;78.10;;;;;;5021540;28;20495;-72
2022/03/08 07:33:00;;;;;;;1.50;1.37;;;4.20;78.10;;;;;;5023818;28;20486;-71
2022/03/08 07:35:27;;;;;;;1.60;1.40;;;4.40;77.10;;;;;;5022137;28;20483;-72
2022/03/08 07:37:54;;;;;;;3.93;3.63;;;4.50;76.90;;;;;;5023152;28;20467;-72
2022/03/08 07:40:20;;;;;;;1.60;1.50;;;4.60;77.10;;;;;;5021844;28;20914;-72
2022/03/08 07:42:47;;;;;;;1.60;1.40;;;4.80;76.30;;;;;;5024311;28;20882;-71
2022/03/08 07:45:14;;;;;;;1.60;1.50;;;4.90;76.10;;;;;;5020340;28;20494;-72
2022/03/08 07:47:41;;;;;;;1.70;1.60;;;5.00;75.60;;;;;;5021384;28;20467;-71
2022/03/08 07:50:10;;;;;;;1.50;1.30;;;5.10;75.20;;;;;;5022302;28;20467;-72
2022/03/08 07:52:38;;;;;;;1.60;1.40;;;5.20;75.30;;;;;;5022930;28;20498;-72
2022/03/08 07:55:06;;;;;;;1.60;1.50;;;5.30;75.00;;;;;;5023883;28;20593;-72
2022/03/08 07:57:33;;;;;;;1.50;1.30;;;5.40;74.70;;;;;;5023803;28;20573;-71
2022/03/08 07:59:59;;;;;;;1.50;1.30;;;5.40;74.40;;;;;;5018815;28;20986;-72
2022/03/08 08:02:26;;;;;;;1.57;1.40;;;5.40;74.30;;;;;;5019437;28;20487;-71
2022/03/08 08:04:53;;;;;;;1.50;1.30;;;5.50;74.20;;;;;;5024767;28;20849;-72
2022/03/08 08:07:21;;;;;;;1.50;1.30;;;5.60;74.10;;;;;;5011576;28;20558;-72
2022/03/08 08:09:48;;;;;;;1.50;1.30;;;5.70;74.30;;;;;;5022142;28;20474;-72
2022/03/08 08:12:14;;;;;;;1.50;1.30;;;5.80;73.60;;;;;;5021156;28;20514;-71
2022/03/08 08:14:41;;;;;;;1.60;1.50;;;5.90;73.40;;;;;;5022272;28;20902;-72
2022/03/08 08:17:08;;;;;;;1.73;1.63;;;5.90;73.40;;;;;;5026961;28;20477;-71
2022/03/08 08:19:35;;;;;;;1.50;1.30;;;6.10;73.20;;;;;;5022866;28;21496;-72
2022/03/08 08:22:02;;;;;;;1.50;1.20;;;6.10;73.30;;;;;;5021524;28;20482;-72
2022/03/08 08:24:30;;;;;;;1.70;1.60;;;6.20;73.10;;;;;;5025999;28;21386;-71
2022/03/08 08:26:56;;;;;;;1.50;1.30;;;6.30;72.50;;;;;;5025566;28;20467;-72
2022/03/08 08:29:23;;;;;;;1.50;1.30;;;6.40;72.00;;;;;;5021321;28;20486;-72
2022/03/08 08:31:50;;;;;;;1.70;1.60;;;6.50;71.90;;;;;;5024461;28;20494;-72
2022/03/08 08:34:17;;;;;;;1.50;1.30;;;6.60;72.30;;;;;;5025797;28;20486;-72
2022/03/08 08:36:46;;;;;;;1.50;1.20;;;6.70;71.70;;;;;;5014668;28;20492;-72
2022/03/08 08:39:14;;;;;;;1.50;1.30;;;6.80;71.20;;;;;;5018743;28;20471;-72
2022/03/08 08:41:42;;;;;;;1.50;1.30;;;6.80;70.80;;;;;;5019843;28;20585;-72
2022/03/08 08:44:09;;;;;;;3.83;3.57;;;6.90;70.80;;;;;;5034888;28;20482;-72
2022/03/08 08:46:36;;;;;;;1.57;1.40;;;6.90;70.30;;;;;;5027612;28;20482;-71
2022/03/08 08:49:04;;;;;;;1.60;1.50;;;7.00;70.50;;;;;;5027200;28;20478;-72
2022/03/08 08:51:31;;;;;;;1.50;1.30;;;7.00;70.50;;;;;;5024821;28;20498;-72
2022/03/08 08:53:58;;;;;;;1.50;1.20;;;7.00;70.40;;;;;;5027067;28;20487;-73
2022/03/08 08:56:25;;;;;;;1.50;1.30;;;7.20;70.60;;;;;;5027265;28;20951;-73
2022/03/08 08:58:53;;;;;;;1.50;1.20;;;7.20;69.50;;;;;;5026464;28;20998;-71
2022/03/08 09:01:20;;;;;;;1.50;1.23;;;7.30;69.50;;;;;;5029588;28;20462;-71
2022/03/08 09:03:47;;;;;;;1.50;1.20;;;7.30;68.80;;;;;;5024757;28;20498;-72
2022/03/08 09:06:14;;;;;;;2.80;2.60;;;7.20;69.30;;;;;;5019979;28;20485;-71
2022/03/08 09:08:41;;;;;;;1.50;1.20;;;7.30;69.50;;;;;;5037387;28;20471;-71
2022/03/08 09:11:10;;;;;;;1.80;1.70;;;7.50;69.30;;;;;;5025747;28;20495;-71
2022/03/08 09:13:36;;;;;;;1.50;1.20;;;7.60;68.80;;;;;;5027753;28;20569;-71
2022/03/08 09:16:05;;;;;;;1.50;1.20;;;7.70;68.70;;;;;;5027611;28;20467;-71
2022/03/08 09:18:32;;;;;;;3.00;2.80;;;7.80;68.30;;;;;;5030303;28;20467;-71
2022/03/08 09:20:59;;;;;;;1.50;1.20;;;7.90;67.70;;;;;;5025943;28;20470;-72
2022/03/08 09:23:25;;;;;;;2.60;2.40;;;7.90;67.90;;;;;;5026460;28;20470;-71
2022/03/08 09:25:52;;;;;;;1.50;1.23;;;8.00;68.20;;;;;;5028874;28;20463;-71
2022/03/08 09:28:19;;;;;;;1.50;1.30;;;8.20;67.60;;;;;;5028178;28;20470;-72
2022/03/08 09:30:48;;;;;;;1.50;1.20;;;8.30;66.40;;;;;;5023800;28;20459;-71
2022/03/08 09:33:16;;;;;;;1.50;1.07;;;8.40;66.60;;;;;;5024633;28;20470;-71
2022/03/08 09:35:42;;;;;;;1.50;1.30;;;8.40;66.50;;;;;;5028036;28;20463;-73
2022/03/08 09:38:11;;;;;;;1.50;1.20;;;8.50;66.40;;;;;;5028482;28;20471;-71
2022/03/08 09:40:39;;;;;;;1.50;1.10;;;8.60;66.00;;;;;;5025828;28;20484;-71
2022/03/08 09:43:06;;;;;;;1.50;1.30;;;8.80;66.30;;;;;;5033496;28;20469;-71
2022/03/08 09:45:33;;;;;;;1.50;1.20;;;9.00;64.80;;;;;;5035886;28;20483;-72
2022/03/08 09:48:00;;;;;;;17.53;2.63;;;9.00;64.30;;;;;;5033269;28;20486;-71
2022/03/08 09:50:29;;;;;;;1.50;1.20;;;9.00;63.20;;;;;;5023512;28;20883;-73
2022/03/08 09:52:57;;;;;;;1.50;1.17;;;8.80;62.50;;;;;;5001917;28;20476;-72
2022/03/08 09:55:25;;;;;;;1.50;1.20;;;8.90;63.00;;;;;;5025718;28;20483;-73
2022/03/08 09:57:54;;;;;;;1.70;1.60;;;9.00;62.90;;;;;;5025393;28;20483;-73
2022/03/08 10:00:23;;;;;;;1.90;1.50;;;9.20;62.30;;;;;;5024152;28;20470;-72
2022/03/08 10:02:51;;;;;;;2.00;1.80;;;9.20;61.80;;;;;;5024820;28;20519;-70
2022/03/08 10:05:22;;;;;;;2.40;2.20;;;9.40;61.70;;;;;;5038473;23;20499;-71
2022/03/08 10:08:10;;;;;;;2.27;2.03;;;9.40;61.70;;;;;;5041501;28;20474;-72
2022/03/08 10:11:02;;;;;;;1.47;1.00;;;9.40;60.90;;;;;;5044327;28;20549;-72
2022/03/08 10:13:32;;;;;;;1.60;1.43;;;9.30;61.50;;;;;;5033465;28;20465;-71
2022/03/08 10:16:11;;;;;;;1.47;1.17;;;9.50;61.30;;;;;;5058812;28;20489;-72
2022/03/08 10:18:41;;;;;;;1.50;1.20;;;9.60;60.70;;;;;;5065139;28;20977;-72
2022/03/08 10:21:26;;;;;;;1.47;1.10;;;9.70;60.80;;;;;;5064764;28;20461;-72
2022/03/08 10:23:55;;;;;;;1.50;1.10;;;9.80;60.20;;;;;;5066124;28;20497;-71
2022/03/08 10:26:23;;;;;;;1.50;1.20;;;9.80;60.00;;;;;;5063155;28;20490;-71
2022/03/08 10:28:51;;;;;;;1.50;1.37;;;9.80;59.90;;;;;;5062264;28;20465;-72
2022/03/08 10:31:19;;;;;;;1.50;1.20;;;9.80;59.70;;;;;;5050404;28;20886;-72
2022/03/08 10:33:47;;;;;;;1.47;1.00;;;9.90;60.10;;;;;;5049004;28;20462;-72
2022/03/08 10:36:16;;;;;;;1.47;1.10;;;10.10;60.10;;;;;;5059272;28;20485;-73
2022/03/08 10:39:22;;;;;;;1.77;1.30;;;10.20;59.50;;;;;;5064563;28;20515;-72
2022/03/08 10:41:53;;;;;;;1.50;1.10;;;10.30;59.50;;;;;;5045473;28;20457;-72
2022/03/08 10:44:39;;;;;;;7.00;4.93;;;10.30;58.30;;;;;;5064908;28;20791;-72
2022/03/08 10:47:09;;;;;;;8.70;8.00;;;10.20;58.50;;;;;;5059645;28;20568;-72
2022/03/08 10:49:47;;;;;;;1.50;1.30;;;10.40;58.70;;;;;;5065015;28;20465;-72
2022/03/08 10:52:14;;;;;;;1.50;1.20;;;10.60;58.60;;;;;;5036299;28;20825;-72
2022/03/08 10:54:40;;;;;;;1.50;1.10;;;10.70;58.60;;;;;;5056799;28;20490;-72
2022/03/08 10:57:09;;;;;;;1.50;1.10;;;10.70;58.30;;;;;;5065478;28;20472;-72
2022/03/08 10:59:36;;;;;;;1.50;1.10;;;10.60;58.50;;;;;;5065109;28;20466;-72
2022/03/08 11:02:20;;;;;;;1.47;1.00;;;10.70;58.10;;;;;;5058641;28;20816;-72
2022/03/08 11:04:47;;;;;;;1.50;1.10;;;10.90;59.40;;;;;;5058512;28;20497;-71
2022/03/08 11:07:14;;;;;;;1.50;1.10;;;11.00;58.10;;;;;;5062095;28;20476;-71
2022/03/08 11:09:42;;;;;;;3.23;2.93;;;10.90;57.90;;;;;;5065273;28;20469;-72
2022/03/08 11:12:11;;;;;;;1.50;1.00;;;10.90;57.60;;;;;;5060565;28;20481;-73
2022/03/08 11:14:37;;;;;;;1.90;1.70;;;10.80;57.40;;;;;;5052571;28;20486;-72
2022/03/08 11:17:05;;;;;;;2.13;1.97;;;10.80;57.70;;;;;;5062066;28;20473;-72
2022/03/08 11:19:32;;;;;;;4.10;3.80;;;10.80;58.00;;;;;;5064911;28;20473;-73
2022/03/08 11:22:00;;;;;;;1.60;1.30;;;11.00;58.40;;;;;;5064550;28;20457;-72
2022/03/08 11:24:28;;;;;;;1.47;1.00;;;11.10;58.80;;;;;;5059237;28;20842;-73
2022/03/08 11:26:56;;;;;;;1.50;1.10;;;11.30;57.90;;;;;;5060429;28;20462;-72
2022/03/08 11:29:26;;;;;;;1.50;1.10;;;11.30;57.20;;;;;;5058474;28;20871;-72
2022/03/08 11:31:59;;;;;;;1.50;1.10;;;11.20;57.60;;;;;;5064867;28;20596;-71
2022/03/08 11:34:36;;;;;;;1.50;1.10;;;11.20;57.40;;;;;;5061310;28;20465;-72
2022/03/08 11:37:12;;;;;;;1.47;1.10;;;11.30;57.40;;;;;;5052278;28;20468;-71
2022/03/08 11:39:40;;;;;;;1.47;1.00;;;11.30;57.60;;;;;;5064513;28;20754;-72
2022/03/08 11:42:28;;;;;;;1.50;1.30;;;11.30;57.10;;;;;;5063637;28;20919;-72
2022/03/08 11:44:58;;;;;;;1.47;1.00;;;11.30;57.20;;;;;;5064618;28;20523;-72
2022/03/08 11:47:37;;;;;;;1.50;1.10;;;11.50;57.80;;;;;;5059569;28;20462;-72
2022/03/08 11:50:05;;;;;;;1.63;1.53;;;11.70;57.30;;;;;;5064439;28;20473;-72
2022/03/08 11:52:35;;;;;;;1.43;1.03;;;11.70;56.00;;;;;;5061719;28;20486;-71
2022/03/08 11:55:06;;;;;;;1.50;1.10;;;11.60;55.50;;;;;;5064544;28;20587;-73
2022/03/08 11:57:58;;;;;;;1.50;1.00;;;11.60;55.60;;;;;;5064615;28;20918;-73
2022/03/08 12:00:39;;;;;;;1.43;1.00;;;11.70;55.90;;;;;;5042338;28;20573;-73
2022/03/08 12:03:08;;;;;;;1.40;1.00;;;11.70;55.80;;;;;;5062396;28;20468;-73
2022/03/08 12:05:49;;;;;;;1.43;1.00;;;11.80;56.10;;;;;;5055593;28;20764;-74
2022/03/08 12:08:41;;;;;;;1.50;1.00;;;11.80;55.70;;;;;;5060123;28;20472;-72
2022/03/08 12:11:15;;;;;;;1.47;1.00;;;11.70;55.70;;;;;;5059894;28;20884;-72
2022/03/08 12:13:44;;;;;;;1.50;1.10;;;11.60;56.10;;;;;;5058217;28;20489;-72
2022/03/08 12:16:25;;;;;;;1.50;1.10;;;11.70;56.20;;;;;;5057619;28;20489;-72
2022/03/08 12:18:53;;;;;;;1.43;1.00;;;11.70;55.80;;;;;;5055155;28;20535;-72
2022/03/08 12:21:35;;;;;;;1.50;1.00;;;11.60;55.60;;;;;;5061665;28;20466;-72
2022/03/08 12:24:03;;;;;;;1.50;1.10;;;11.80;55.80;;;;;;5063333;28;20972;-73
2022/03/08 12:26:32;;;;;;;1.50;1.10;;;12.00;56.00;;;;;;5047574;28;20489;-72
2022/03/08 12:29:11;;;;;;;1.50;1.40;;;12.20;55.20;;;;;;5049903;28;20469;-73
2022/03/08 12:32:24;;;;;;;1.50;1.10;;;12.10;54.40;;;;;;5054280;28;20473;-72
2022/03/08 12:34:53;;;;;;;1.60;1.40;;;12.00;54.30;;;;;;5056834;28;20513;-72
2022/03/08 12:37:22;;;;;;;1.50;1.10;;;11.80;54.90;;;;;;5055468;28;20474;-72
2022/03/08 12:39:55;;;;;;;2.00;1.67;;;12.00;55.10;;;;;;5054243;28;20469;-73
2022/03/08 12:42:28;;;;;;;1.47;1.00;;;12.00;54.90;;;;;;5046392;28;20462;-73
2022/03/08 12:44:59;;;;;;;1.47;1.00;;;12.20;55.70;;;;;;5058578;28;20479;-72
2022/03/08 12:47:30;;;;;;;1.50;1.00;;;12.30;55.00;;;;;;5059935;28;20461;-72
2022/03/08 12:50:01;;;;;;;1.43;1.00;;;12.30;54.80;;;;;;5054192;28;20496;-72
2022/03/08 12:52:29;;;;;;;1.50;1.10;;;12.40;54.60;;;;;;5060958;28;20493;-72
2022/03/08 12:54:57;;;;;;;1.73;1.63;;;12.20;54.20;;;;;;5059089;28;20481;-73
2022/03/08 12:57:25;;;;;;;1.50;1.00;;;12.00;54.40;;;;;;5054467;28;20457;-71
2022/03/08 12:59:53;;;;;;;1.47;1.10;;;12.10;55.10;;;;;;5059609;28;20477;-72
2022/03/08 13:02:21;;;;;;;1.40;1.00;;;12.20;54.90;;;;;;5057313;28;20541;-72